sensor_id;sensor_type;location;lat;lon;timestamp;pressure;altitude;pressure_sealevel;temperature;humidity
60725;BME280;59881;36.722;-4.462;2023-11-22T00:00:55;101142.06;;;13.14;48.48
60725;BME280;59881;36.722;-4.462;2023-11-22T00:03:21;100761.38;;;10.88;48.54
60725;BME280;59881;36.722;-4.462;2023-11-22T00:05:49;101117.53;;;12.99;48.57
60725;BME280;59881;36.722;-4.462;2023-11-22T00:08:15;101141.66;;;13.07;48.36
60725;BME280;59881;36.722;-4.462;2023-11-22T00:10:40;101123.97;;;12.95;48.46
60725;BME280;59881;36.722;-4.462;2023-11-22T00:13:06;101193.59;;;13.08;48.18
60725;BME280;59881;36.722;-4.462;2023-11-22T00:15:31;101137.00;;;13.11;48.06
60725;BME280;59881;36.722;-4.462;2023-11-22T00:17:57;101043.84;;;12.56;47.94
60725;BME280;59881;36.722;-4.462;2023-11-22T00:20:23;101127.38;;;13.10;47.93
60725;BME280;59881;36.722;-4.462;2023-11-22T00:22:49;101004.44;;;12.40;47.62
60725;BME280;59881;36.722;-4.462;2023-11-22T00:25:15;101091.50;;;12.93;47.80
60725;BME280;59881;36.722;-4.462;2023-11-22T00:27:40;101119.53;;;13.08;47.78
60725;BME280;59881;36.722;-4.462;2023-11-22T00:30:07;100749.47;;;10.95;47.25
60725;BME280;59881;36.722;-4.462;2023-11-22T00:32:33;100771.41;;;11.08;46.90
60725;BME280;59881;36.722;-4.462;2023-11-22T00:34:58;101112.47;;;13.09;46.88
60725;BME280;59881;36.722;-4.462;2023-11-22T00:37:24;101102.81;;;13.08;46.72
60725;BME280;59881;36.722;-4.462;2023-11-22T00:39:49;101009.81;;;12.38;46.87
60725;BME280;59881;36.722;-4.462;2023-11-22T00:42:16;100698.34;;;10.45;47.09
60725;BME280;59881;36.722;-4.462;2023-11-22T00:44:46;100829.13;;;11.13;47.61
60725;BME280;59881;36.722;-4.462;2023-11-22T00:47:12;101060.97;;;12.37;47.79
60725;BME280;59881;36.722;-4.462;2023-11-22T00:49:37;101083.59;;;12.41;47.94
60725;BME280;59881;36.722;-4.462;2023-11-22T00:52:04;100649.53;;;9.85;47.69
60725;BME280;59881;36.722;-4.462;2023-11-22T00:54:29;101102.13;;;12.67;47.85
60725;BME280;59881;36.722;-4.462;2023-11-22T00:56:55;101055.66;;;12.37;47.89
60725;BME280;59881;36.722;-4.462;2023-11-22T00:59:20;100781.22;;;10.66;47.87
60725;BME280;59881;36.722;-4.462;2023-11-22T01:01:46;100986.19;;;11.84;48.02
60725;BME280;59881;36.722;-4.462;2023-11-22T01:04:12;100933.84;;;11.51;48.01
60725;BME280;59881;36.722;-4.462;2023-11-22T01:06:37;101111.09;;;12.52;48.18
60725;BME280;59881;36.722;-4.462;2023-11-22T01:09:05;100919.03;;;11.35;48.24
60725;BME280;59881;36.722;-4.462;2023-11-22T01:11:34;100970.84;;;11.64;48.43
60725;BME280;59881;36.722;-4.462;2023-11-22T01:14:00;101040.00;;;12.09;48.07
60725;BME280;59881;36.722;-4.462;2023-11-22T01:16:25;101096.91;;;12.53;47.60
60725;BME280;59881;36.722;-4.462;2023-11-22T01:18:51;101091.75;;;12.51;47.49
60725;BME280;59881;36.722;-4.462;2023-11-22T01:21:18;101106.44;;;12.55;47.55
60725;BME280;59881;36.722;-4.462;2023-11-22T01:23:45;101097.13;;;12.50;47.74
60725;BME280;59881;36.722;-4.462;2023-11-22T01:26:11;100705.53;;;10.01;47.55
60725;BME280;59881;36.722;-4.462;2023-11-22T01:28:37;100980.03;;;11.71;47.83
60725;BME280;59881;36.722;-4.462;2023-11-22T01:31:05;101012.09;;;11.52;47.62
60725;BME280;59881;36.722;-4.462;2023-11-22T01:33:31;101099.00;;;12.35;47.81
60725;BME280;59881;36.722;-4.462;2023-11-22T01:36:01;101040.44;;;12.03;47.81
60725;BME280;59881;36.722;-4.462;2023-11-22T01:38:27;101091.63;;;12.40;47.92
60725;BME280;59881;36.722;-4.462;2023-11-22T01:40:53;101100.31;;;12.42;47.61
60725;BME280;59881;36.722;-4.462;2023-11-22T01:43:19;101100.75;;;12.49;47.30
60725;BME280;59881;36.722;-4.462;2023-11-22T01:45:46;100791.84;;;10.52;47.01
60725;BME280;59881;36.722;-4.462;2023-11-22T01:48:12;100800.19;;;10.59;46.79
60725;BME280;59881;36.722;-4.462;2023-11-22T01:50:44;101108.94;;;12.44;47.18
60725;BME280;59881;36.722;-4.462;2023-11-22T01:53:11;101099.66;;;12.38;47.15
60725;BME280;59881;36.722;-4.462;2023-11-22T01:55:39;101121.84;;;12.36;47.42
60725;BME280;59881;36.722;-4.462;2023-11-22T01:58:05;101101.44;;;12.25;47.53
60725;BME280;59881;36.722;-4.462;2023-11-22T02:00:36;100631.06;;;9.30;47.72
60725;BME280;59881;36.722;-4.462;2023-11-22T02:03:02;101156.66;;;12.15;47.88
60725;BME280;59881;36.722;-4.462;2023-11-22T02:05:28;101090.09;;;12.10;48.02
60725;BME280;59881;36.722;-4.462;2023-11-22T02:07:53;101088.19;;;12.12;48.23
60725;BME280;59881;36.722;-4.462;2023-11-22T02:10:20;101069.44;;;11.90;48.07
60725;BME280;59881;36.722;-4.462;2023-11-22T02:12:46;101020.03;;;11.65;48.48
60725;BME280;59881;36.722;-4.462;2023-11-22T02:15:11;100780.22;;;10.13;48.62
60725;BME280;59881;36.722;-4.462;2023-11-22T02:17:37;101033.88;;;11.68;49.25
60725;BME280;59881;36.722;-4.462;2023-11-22T02:20:03;101092.25;;;11.91;49.24
60725;BME280;59881;36.722;-4.462;2023-11-22T02:22:43;101160.03;;;12.05;49.33
60725;BME280;59881;36.722;-4.462;2023-11-22T02:25:09;101169.09;;;12.00;49.24
60725;BME280;59881;36.722;-4.462;2023-11-22T02:27:35;101048.78;;;11.69;49.30
60725;BME280;59881;36.722;-4.462;2023-11-22T02:30:03;101049.50;;;11.71;48.86
60725;BME280;59881;36.722;-4.462;2023-11-22T02:32:31;101043.50;;;11.69;49.28
60725;BME280;59881;36.722;-4.462;2023-11-22T02:34:56;101080.00;;;11.90;49.25
60725;BME280;59881;36.722;-4.462;2023-11-22T02:37:22;101080.09;;;11.88;49.21
60725;BME280;59881;36.722;-4.462;2023-11-22T02:42:30;101030.63;;;11.50;49.22
60725;BME280;59881;36.722;-4.462;2023-11-22T02:44:56;101105.88;;;11.70;49.09
60725;BME280;59881;36.722;-4.462;2023-11-22T02:47:22;101077.69;;;11.71;49.45
60725;BME280;59881;36.722;-4.462;2023-11-22T02:49:48;100460.38;;;8.00;49.33
60725;BME280;59881;36.722;-4.462;2023-11-22T02:52:14;101020.25;;;11.34;49.27
60725;BME280;59881;36.722;-4.462;2023-11-22T02:54:43;101102.03;;;11.62;49.17
60725;BME280;59881;36.722;-4.462;2023-11-22T02:57:11;100696.69;;;9.46;49.00
60725;BME280;59881;36.722;-4.462;2023-11-22T02:59:40;100682.97;;;9.27;49.21
60725;BME280;59881;36.722;-4.462;2023-11-22T03:02:06;100930.25;;;10.85;49.66
60725;BME280;59881;36.722;-4.462;2023-11-22T03:04:32;101063.28;;;11.62;49.66
60725;BME280;59881;36.722;-4.462;2023-11-22T03:06:59;101052.03;;;11.46;49.59
60725;BME280;59881;36.722;-4.462;2023-11-22T03:09:25;100988.59;;;11.07;49.77
60725;BME280;59881;36.722;-4.462;2023-11-22T03:11:52;101015.75;;;11.22;49.40
60725;BME280;59881;36.722;-4.462;2023-11-22T03:14:17;101067.50;;;11.52;49.62
60725;BME280;59881;36.722;-4.462;2023-11-22T03:16:43;100801.13;;;9.44;49.56
60725;BME280;59881;36.722;-4.462;2023-11-22T03:19:09;101076.69;;;11.59;49.49
60725;BME280;59881;36.722;-4.462;2023-11-22T03:21:35;100871.63;;;10.25;49.57
60725;BME280;59881;36.722;-4.462;2023-11-22T03:24:02;101037.50;;;11.26;49.47
60725;BME280;59881;36.722;-4.462;2023-11-22T03:26:29;101059.81;;;11.34;49.55
60725;BME280;59881;36.722;-4.462;2023-11-22T03:28:55;100668.41;;;8.93;49.44
60725;BME280;59881;36.722;-4.462;2023-11-22T03:31:21;101024.16;;;11.14;49.76
60725;BME280;59881;36.722;-4.462;2023-11-22T03:33:47;101081.81;;;11.48;49.98
60725;BME280;59881;36.722;-4.462;2023-11-22T03:36:12;101081.81;;;11.48;50.10
60725;BME280;59881;36.722;-4.462;2023-11-22T03:38:41;101075.59;;;11.49;50.13
60725;BME280;59881;36.722;-4.462;2023-11-22T03:41:06;101076.63;;;11.46;50.33
60725;BME280;59881;36.722;-4.462;2023-11-22T03:43:32;101082.94;;;11.44;50.23
60725;BME280;59881;36.722;-4.462;2023-11-22T03:45:57;100786.09;;;9.61;50.25
60725;BME280;59881;36.722;-4.462;2023-11-22T03:48:23;100889.59;;;10.19;50.13
60725;BME280;59881;36.722;-4.462;2023-11-22T03:50:51;101083.09;;;11.28;50.60
60725;BME280;59881;36.722;-4.462;2023-11-22T03:53:17;100677.28;;;8.76;50.88
60725;BME280;59881;36.722;-4.462;2023-11-22T03:55:44;100798.84;;;9.38;51.29
60725;BME280;59881;36.722;-4.462;2023-11-22T03:58:09;100905.19;;;9.93;51.10
60725;BME280;59881;36.722;-4.462;2023-11-22T04:00:35;100801.41;;;9.40;51.24
60725;BME280;59881;36.722;-4.462;2023-11-22T04:03:01;100941.25;;;9.77;51.68
60725;BME280;59881;36.722;-4.462;2023-11-22T04:05:27;101096.28;;;11.13;51.55
60725;BME280;59881;36.722;-4.462;2023-11-22T04:07:53;101058.72;;;10.95;51.61
60725;BME280;59881;36.722;-4.462;2023-11-22T04:10:19;100696.72;;;8.73;51.87
60725;BME280;59881;36.722;-4.462;2023-11-22T04:12:46;100790.69;;;9.28;51.97
60725;BME280;59881;36.722;-4.462;2023-11-22T04:15:13;101151.94;;;11.09;52.04
60725;BME280;59881;36.722;-4.462;2023-11-22T04:17:42;100946.09;;;10.27;52.31
60725;BME280;59881;36.722;-4.462;2023-11-22T04:20:09;100972.53;;;10.40;52.20
60725;BME280;59881;36.722;-4.462;2023-11-22T04:22:36;101077.84;;;10.99;52.34
60725;BME280;59881;36.722;-4.462;2023-11-22T04:25:02;101082.44;;;10.95;52.55
60725;BME280;59881;36.722;-4.462;2023-11-22T04:27:28;100696.38;;;8.63;52.51
60725;BME280;59881;36.722;-4.462;2023-11-22T04:29:53;101109.00;;;10.64;52.58
60725;BME280;59881;36.722;-4.462;2023-11-22T04:32:19;101076.81;;;10.87;52.71
60725;BME280;59881;36.722;-4.462;2023-11-22T04:34:47;101087.38;;;10.87;52.90
60725;BME280;59881;36.722;-4.462;2023-11-22T04:37:13;101062.88;;;10.71;52.78
60725;BME280;59881;36.722;-4.462;2023-11-22T04:39:38;100753.28;;;8.79;52.80
60725;BME280;59881;36.722;-4.462;2023-11-22T04:42:04;100724.53;;;8.61;52.88
60725;BME280;59881;36.722;-4.462;2023-11-22T04:44:30;101086.44;;;10.74;52.70
60725;BME280;59881;36.722;-4.462;2023-11-22T04:46:55;100927.34;;;9.74;52.92
60725;BME280;59881;36.722;-4.462;2023-11-22T04:49:21;100970.63;;;9.99;53.19
60725;BME280;59881;36.722;-4.462;2023-11-22T04:51:46;101082.91;;;10.73;53.10
60725;BME280;59881;36.722;-4.462;2023-11-22T04:54:12;100995.75;;;10.19;52.94
60725;BME280;59881;36.722;-4.462;2023-11-22T04:56:37;100891.88;;;9.21;53.44
60725;BME280;59881;36.722;-4.462;2023-11-22T04:59:03;100983.13;;;10.10;53.48
60725;BME280;59881;36.722;-4.462;2023-11-22T05:01:35;101023.97;;;9.87;53.18
60725;BME280;59881;36.722;-4.462;2023-11-22T05:04:01;101077.66;;;10.59;53.64
60725;BME280;59881;36.722;-4.462;2023-11-22T05:06:26;100908.66;;;9.19;53.54
60725;BME280;59881;36.722;-4.462;2023-11-22T05:08:54;101092.44;;;10.62;53.66
60725;BME280;59881;36.722;-4.462;2023-11-22T05:11:20;101087.16;;;10.62;53.53
60725;BME280;59881;36.722;-4.462;2023-11-22T05:13:46;101004.84;;;10.13;53.35
60725;BME280;59881;36.722;-4.462;2023-11-22T05:16:12;101084.03;;;10.55;53.38
60725;BME280;59881;36.722;-4.462;2023-11-22T05:18:38;100798.56;;;8.68;53.22
60725;BME280;59881;36.722;-4.462;2023-11-22T05:21:04;101117.44;;;10.54;53.55
60725;BME280;59881;36.722;-4.462;2023-11-22T05:23:30;100857.00;;;9.03;53.32
60725;BME280;59881;36.722;-4.462;2023-11-22T05:25:57;101094.19;;;10.47;53.33
60725;BME280;59881;36.722;-4.462;2023-11-22T05:28:25;101044.81;;;9.60;53.26
60725;BME280;59881;36.722;-4.462;2023-11-22T05:30:50;101092.50;;;10.46;53.89
60725;BME280;59881;36.722;-4.462;2023-11-22T05:33:16;101092.50;;;10.46;53.85
60725;BME280;59881;36.722;-4.462;2023-11-22T05:35:41;101140.59;;;10.49;53.98
60725;BME280;59881;36.722;-4.462;2023-11-22T05:38:07;100850.47;;;8.95;53.90
60725;BME280;59881;36.722;-4.462;2023-11-22T05:40:33;101100.13;;;10.50;53.79
60725;BME280;59881;36.722;-4.462;2023-11-22T05:42:59;100771.78;;;8.29;53.77
60725;BME280;59881;36.722;-4.462;2023-11-22T05:45:25;101167.09;;;10.46;53.81
60725;BME280;59881;36.722;-4.462;2023-11-22T05:47:51;100892.72;;;9.22;53.76
60725;BME280;59881;36.722;-4.462;2023-11-22T05:50:16;101098.69;;;10.45;53.73
60725;BME280;59881;36.722;-4.462;2023-11-22T05:52:43;100721.34;;;7.77;53.32
60725;BME280;59881;36.722;-4.462;2023-11-22T05:55:10;101105.75;;;10.44;53.73
60725;BME280;59881;36.722;-4.462;2023-11-22T05:57:35;100424.38;;;6.32;53.81
60725;BME280;59881;36.722;-4.462;2023-11-22T06:00:01;100820.56;;;8.65;53.73
60725;BME280;59881;36.722;-4.462;2023-11-22T06:02:27;100895.50;;;9.19;53.77
60725;BME280;59881;36.722;-4.462;2023-11-22T06:04:53;100728.47;;;8.06;53.87
60725;BME280;59881;36.722;-4.462;2023-11-22T06:07:19;100938.13;;;9.40;53.95
60725;BME280;59881;36.722;-4.462;2023-11-22T06:09:44;100784.34;;;8.08;53.64
60725;BME280;59881;36.722;-4.462;2023-11-22T06:12:10;100669.66;;;7.63;53.47
60725;BME280;59881;36.722;-4.462;2023-11-22T06:14:35;101102.91;;;10.33;53.77
60725;BME280;59881;36.722;-4.462;2023-11-22T06:17:01;101037.72;;;9.92;53.71
60725;BME280;59881;36.722;-4.462;2023-11-22T06:19:28;100842.00;;;8.74;53.61
60725;BME280;59881;36.722;-4.462;2023-11-22T06:21:54;100834.47;;;8.67;53.68
60725;BME280;59881;36.722;-4.462;2023-11-22T06:24:19;100550.81;;;6.99;53.64
60725;BME280;59881;36.722;-4.462;2023-11-22T06:26:45;100982.22;;;9.81;53.66
60725;BME280;59881;36.722;-4.462;2023-11-22T06:29:15;101062.50;;;10.48;53.15
60725;BME280;59881;36.722;-4.462;2023-11-22T06:31:41;101051.59;;;10.54;52.46
60725;BME280;59881;36.722;-4.462;2023-11-22T06:34:07;101023.34;;;10.42;52.65
60725;BME280;59881;36.722;-4.462;2023-11-22T06:36:32;101090.75;;;10.89;52.15
60725;BME280;59881;36.722;-4.462;2023-11-22T06:38:58;100950.03;;;10.06;52.06
60725;BME280;59881;36.722;-4.462;2023-11-22T06:41:23;101106.81;;;10.85;51.98
60725;BME280;59881;36.722;-4.462;2023-11-22T06:43:49;101176.25;;;10.55;52.45
60725;BME280;59881;36.722;-4.462;2023-11-22T06:46:15;101120.41;;;10.79;52.38
60725;BME280;59881;36.722;-4.462;2023-11-22T06:48:42;101112.59;;;10.77;52.48
60725;BME280;59881;36.722;-4.462;2023-11-22T06:51:14;101045.66;;;10.37;52.25
60725;BME280;59881;36.722;-4.462;2023-11-22T06:53:39;100803.34;;;8.91;52.23
60725;BME280;59881;36.722;-4.462;2023-11-22T06:56:05;101048.38;;;10.35;52.38
60725;BME280;59881;36.722;-4.462;2023-11-22T06:58:30;100834.53;;;8.98;52.12
60725;BME280;59881;36.722;-4.462;2023-11-22T07:00:56;100841.38;;;9.00;52.18
60725;BME280;59881;36.722;-4.462;2023-11-22T07:03:22;101116.16;;;10.76;52.26
60725;BME280;59881;36.722;-4.462;2023-11-22T07:05:47;101117.78;;;10.79;52.64
60725;BME280;59881;36.722;-4.462;2023-11-22T07:08:13;101093.66;;;10.70;52.34
60725;BME280;59881;36.722;-4.462;2023-11-22T07:10:41;101115.13;;;10.93;52.06
60725;BME280;59881;36.722;-4.462;2023-11-22T07:13:07;101103.81;;;10.91;52.14
60725;BME280;59881;36.722;-4.462;2023-11-22T07:15:33;101074.75;;;10.92;52.21
60725;BME280;59881;36.722;-4.462;2023-11-22T07:17:58;101098.47;;;12.30;51.59
60725;BME280;59881;36.722;-4.462;2023-11-22T07:20:24;101090.94;;;13.87;49.22
60725;BME280;59881;36.722;-4.462;2023-11-22T07:22:50;101110.13;;;15.40;46.17
60725;BME280;59881;36.722;-4.462;2023-11-22T07:25:21;101102.13;;;16.69;43.15
60725;BME280;59881;36.722;-4.462;2023-11-22T07:27:51;101097.47;;;17.73;40.16
60725;BME280;59881;36.722;-4.462;2023-11-22T07:30:18;101093.59;;;18.64;37.99
60725;BME280;59881;36.722;-4.462;2023-11-22T07:32:45;101045.25;;;19.14;36.06
60725;BME280;59881;36.722;-4.462;2023-11-22T07:35:11;100810.94;;;18.34;34.61
60725;BME280;59881;36.722;-4.462;2023-11-22T07:37:40;101073.16;;;20.63;33.35
60725;BME280;59881;36.722;-4.462;2023-11-22T07:40:08;101082.63;;;21.18;32.33
60725;BME280;59881;36.722;-4.462;2023-11-22T07:42:38;100618.75;;;18.98;31.28
60725;BME280;59881;36.722;-4.462;2023-11-22T07:45:04;101078.97;;;22.35;30.34
60725;BME280;59881;36.722;-4.462;2023-11-22T07:47:29;100756.81;;;20.92;29.42
60725;BME280;59881;36.722;-4.462;2023-11-22T07:49:55;100836.25;;;21.90;28.31
60725;BME280;59881;36.722;-4.462;2023-11-22T07:52:21;101074.69;;;23.84;28.03
60725;BME280;59881;36.722;-4.462;2023-11-22T07:54:47;101070.63;;;24.49;27.11
60725;BME280;59881;36.722;-4.462;2023-11-22T07:57:13;101053.41;;;24.94;26.53
60725;BME280;59881;36.722;-4.462;2023-11-22T07:59:39;101080.59;;;25.44;25.35
60725;BME280;59881;36.722;-4.462;2023-11-22T08:02:05;101080.50;;;25.95;25.16
60725;BME280;59881;36.722;-4.462;2023-11-22T08:04:36;101062.97;;;26.41;24.57
60725;BME280;59881;36.722;-4.462;2023-11-22T08:07:03;101026.28;;;26.53;23.80
60725;BME280;59881;36.722;-4.462;2023-11-22T08:09:30;101079.63;;;27.14;23.18
60725;BME280;59881;36.722;-4.462;2023-11-22T08:12:01;101087.47;;;27.44;22.88
60725;BME280;59881;36.722;-4.462;2023-11-22T10:38:08;101068.13;;;44.44;7.48
60725;BME280;59881;36.722;-4.462;2023-11-22T10:40:34;101087.47;;;44.57;7.91
60725;BME280;59881;36.722;-4.462;2023-11-22T10:43:01;101038.97;;;39.57;9.31
60725;BME280;59881;36.722;-4.462;2023-11-22T10:45:29;101099.38;;;32.78;13.35
60725;BME280;59881;36.722;-4.462;2023-11-22T10:47:56;101105.94;;;28.15;16.75
60725;BME280;59881;36.722;-4.462;2023-11-22T10:50:23;101100.72;;;25.48;18.86
60725;BME280;59881;36.722;-4.462;2023-11-22T10:52:51;101045.81;;;23.46;20.83
60725;BME280;59881;36.722;-4.462;2023-11-22T10:55:21;101108.09;;;22.79;22.19
60725;BME280;59881;36.722;-4.462;2023-11-22T10:57:55;100602.44;;;19.09;23.48
60725;BME280;59881;36.722;-4.462;2023-11-22T11:00:22;101097.88;;;21.68;24.03
60725;BME280;59881;36.722;-4.462;2023-11-22T11:02:59;101075.94;;;21.22;24.52
60725;BME280;59881;36.722;-4.462;2023-11-22T11:05:28;101115.88;;;20.99;25.31
60725;BME280;59881;36.722;-4.462;2023-11-22T11:10:40;101095.09;;;20.93;25.11
60725;BME280;59881;36.722;-4.462;2023-11-22T11:13:09;100887.56;;;19.59;25.68
60725;BME280;59881;36.722;-4.462;2023-11-22T11:15:37;101081.72;;;20.66;25.59
60725;BME280;59881;36.722;-4.462;2023-11-22T11:18:05;101085.78;;;20.53;26.24
60725;BME280;59881;36.722;-4.462;2023-11-22T11:20:50;101083.19;;;20.43;26.54
60725;BME280;59881;36.722;-4.462;2023-11-22T11:23:20;101074.44;;;20.33;27.00
60725;BME280;59881;36.722;-4.462;2023-11-22T11:25:49;101021.31;;;19.94;26.79
60725;BME280;59881;36.722;-4.462;2023-11-22T11:28:15;101043.53;;;19.94;26.92
60725;BME280;59881;36.722;-4.462;2023-11-22T11:33:12;100700.97;;;17.77;27.42
60725;BME280;59881;36.722;-4.462;2023-11-22T11:35:44;101044.19;;;19.88;27.54
60725;BME280;59881;36.722;-4.462;2023-11-22T11:38:13;101060.84;;;19.82;27.72
60725;BME280;59881;36.722;-4.462;2023-11-22T11:40:45;101038.09;;;19.68;27.66
60725;BME280;59881;36.722;-4.462;2023-11-22T11:43:11;101049.59;;;19.78;27.95
60725;BME280;59881;36.722;-4.462;2023-11-22T11:45:42;101004.75;;;19.54;27.81
60725;BME280;59881;36.722;-4.462;2023-11-22T11:48:15;101016.19;;;19.64;27.90
60725;BME280;59881;36.722;-4.462;2023-11-22T11:50:42;101009.16;;;19.63;28.11
60725;BME280;59881;36.722;-4.462;2023-11-22T11:53:10;101029.72;;;19.81;28.01
60725;BME280;59881;36.722;-4.462;2023-11-22T11:55:37;100890.88;;;18.99;28.08
60725;BME280;59881;36.722;-4.462;2023-11-22T11:58:06;101037.47;;;19.84;27.93
60725;BME280;59881;36.722;-4.462;2023-11-22T12:00:37;100832.69;;;18.57;27.69
60725;BME280;59881;36.722;-4.462;2023-11-22T12:03:07;100956.50;;;19.38;27.39
60725;BME280;59881;36.722;-4.462;2023-11-22T12:05:36;101033.25;;;19.81;27.51
60725;BME280;59881;36.722;-4.462;2023-11-22T12:08:01;100717.78;;;17.87;27.97
60725;BME280;59881;36.722;-4.462;2023-11-22T12:10:28;101033.56;;;19.78;28.00
60725;BME280;59881;36.722;-4.462;2023-11-22T12:12:54;101029.69;;;19.73;28.37
60725;BME280;59881;36.722;-4.462;2023-11-22T12:15:20;101076.19;;;19.52;29.09
60725;BME280;59881;36.722;-4.462;2023-11-22T12:17:48;101029.47;;;19.56;29.58
60725;BME280;59881;36.722;-4.462;2023-11-22T12:20:17;101035.75;;;19.47;30.26
60725;BME280;59881;36.722;-4.462;2023-11-22T12:22:44;100707.13;;;17.50;30.17
60725;BME280;59881;36.722;-4.462;2023-11-22T12:25:11;100993.72;;;19.21;30.15
60725;BME280;59881;36.722;-4.462;2023-11-22T12:27:44;100936.03;;;18.93;30.20
60725;BME280;59881;36.722;-4.462;2023-11-22T12:30:31;100864.56;;;18.59;30.13
60725;BME280;59881;36.722;-4.462;2023-11-22T12:33:09;101023.75;;;19.51;30.15
60725;BME280;59881;36.722;-4.462;2023-11-22T12:35:35;100869.19;;;18.39;30.31
60725;BME280;59881;36.722;-4.462;2023-11-22T12:38:04;100893.00;;;18.78;30.46
60725;BME280;59881;36.722;-4.462;2023-11-22T12:40:34;100817.97;;;18.35;30.55
60725;BME280;59881;36.722;-4.462;2023-11-22T12:43:00;100775.19;;;18.09;30.30
60725;BME280;59881;36.722;-4.462;2023-11-22T12:45:27;101007.88;;;19.50;30.54
60725;BME280;59881;36.722;-4.462;2023-11-22T12:47:54;100966.13;;;19.31;30.24
60725;BME280;59881;36.722;-4.462;2023-11-22T12:50:50;101002.53;;;19.50;30.43
60725;BME280;59881;36.722;-4.462;2023-11-22T12:53:16;101012.75;;;19.18;30.02
60725;BME280;59881;36.722;-4.462;2023-11-22T12:55:47;100996.72;;;19.54;29.98
60725;BME280;59881;36.722;-4.462;2023-11-22T12:58:15;100999.09;;;19.57;29.99
60725;BME280;59881;36.722;-4.462;2023-11-22T13:00:41;100683.34;;;17.66;29.74
60725;BME280;59881;36.722;-4.462;2023-11-22T13:03:07;100986.44;;;19.59;29.67
60725;BME280;59881;36.722;-4.462;2023-11-22T13:05:39;100681.78;;;17.73;29.72
60725;BME280;59881;36.722;-4.462;2023-11-22T13:08:05;100979.94;;;19.62;29.44
60725;BME280;59881;36.722;-4.462;2023-11-22T13:10:31;100971.59;;;19.65;29.39
60725;BME280;59881;36.722;-4.462;2023-11-22T13:12:57;100969.63;;;19.67;29.62
60725;BME280;59881;36.722;-4.462;2023-11-22T13:15:23;100973.31;;;19.66;29.34
60725;BME280;59881;36.722;-4.462;2023-11-22T13:17:54;100944.75;;;19.49;29.65
60725;BME280;59881;36.722;-4.462;2023-11-22T13:20:24;100525.81;;;16.88;29.62
60725;BME280;59881;36.722;-4.462;2023-11-22T13:22:52;100945.34;;;19.60;29.18
60725;BME280;59881;36.722;-4.462;2023-11-22T13:25:17;100960.00;;;19.74;29.60
60725;BME280;59881;36.722;-4.462;2023-11-22T13:27:47;100540.13;;;17.14;29.23
60725;BME280;59881;36.722;-4.462;2023-11-22T13:30:16;100958.03;;;19.76;28.82
60725;BME280;59881;36.722;-4.462;2023-11-22T13:32:45;100853.94;;;19.13;28.75
60725;BME280;59881;36.722;-4.462;2023-11-22T13:35:11;101045.25;;;19.77;28.86
60725;BME280;59881;36.722;-4.462;2023-11-22T13:37:49;100908.03;;;19.51;28.49
60725;BME280;59881;36.722;-4.462;2023-11-22T13:40:17;100948.16;;;19.77;28.69
60725;BME280;59881;36.722;-4.462;2023-11-22T13:42:47;101009.66;;;19.77;28.40
60725;BME280;59881;36.722;-4.462;2023-11-22T13:45:14;101025.69;;;19.77;28.38
60725;BME280;59881;36.722;-4.462;2023-11-22T13:50:09;100601.22;;;17.62;28.59
60725;BME280;59881;36.722;-4.462;2023-11-22T13:52:35;100927.31;;;19.62;28.58
60725;BME280;59881;36.722;-4.462;2023-11-22T13:55:00;100773.47;;;18.72;28.54
60725;BME280;59881;36.722;-4.462;2023-11-22T13:57:30;100946.03;;;19.80;28.56
60725;BME280;59881;36.722;-4.462;2023-11-22T13:59:57;100932.59;;;19.72;28.73
60725;BME280;59881;36.722;-4.462;2023-11-22T14:02:22;100914.94;;;19.61;28.64
60725;BME280;59881;36.722;-4.462;2023-11-22T14:04:48;100955.06;;;19.79;28.23
60725;BME280;59881;36.722;-4.462;2023-11-22T14:07:13;100622.00;;;17.86;28.35
60725;BME280;59881;36.722;-4.462;2023-11-22T14:09:39;100944.19;;;19.81;28.39
60725;BME280;59881;36.722;-4.462;2023-11-22T14:12:04;100922.09;;;19.71;28.48
60725;BME280;59881;36.722;-4.462;2023-11-22T14:14:31;100773.59;;;18.80;28.55
60725;BME280;59881;36.722;-4.462;2023-11-22T14:16:56;100916.88;;;19.69;28.38
60725;BME280;59881;36.722;-4.462;2023-11-22T14:19:22;100901.44;;;19.63;28.35
60725;BME280;59881;36.722;-4.462;2023-11-22T14:21:48;100941.69;;;19.79;28.46
60725;BME280;59881;36.722;-4.462;2023-11-22T14:24:14;100737.50;;;18.58;28.29
60725;BME280;59881;36.722;-4.462;2023-11-22T14:26:39;100867.56;;;19.46;28.47
60725;BME280;59881;36.722;-4.462;2023-11-22T14:29:05;100913.59;;;19.75;28.54
60725;BME280;59881;36.722;-4.462;2023-11-22T14:31:31;100919.09;;;19.74;28.43
60725;BME280;59881;36.722;-4.462;2023-11-22T14:33:57;100758.09;;;18.84;28.77
60725;BME280;59881;36.722;-4.462;2023-11-22T14:36:26;100944.81;;;19.57;28.58
60725;BME280;59881;36.722;-4.462;2023-11-22T14:38:52;100914.75;;;19.73;28.92
60725;BME280;59881;36.722;-4.462;2023-11-22T14:41:22;100883.31;;;19.49;28.82
60725;BME280;59881;36.722;-4.462;2023-11-22T14:43:48;101006.88;;;19.69;28.29
60725;BME280;59881;36.722;-4.462;2023-11-22T14:46:13;100372.59;;;16.12;28.65
60725;BME280;59881;36.722;-4.462;2023-11-22T14:48:39;100414.22;;;16.59;28.35
60725;BME280;59881;36.722;-4.462;2023-11-22T14:51:05;100908.63;;;19.62;28.73
60725;BME280;59881;36.722;-4.462;2023-11-22T14:53:30;100590.75;;;17.60;28.54
60725;BME280;59881;36.722;-4.462;2023-11-22T14:55:56;100609.31;;;17.70;29.04
60725;BME280;59881;36.722;-4.462;2023-11-22T14:58:22;101012.28;;;19.59;28.65
60725;BME280;59881;36.722;-4.462;2023-11-22T15:00:48;100881.56;;;19.21;28.57
60725;BME280;59881;36.722;-4.462;2023-11-22T15:03:14;100970.00;;;19.54;28.58
60725;BME280;59881;36.722;-4.462;2023-11-22T15:05:40;100909.72;;;19.16;28.76
60725;BME280;59881;36.722;-4.462;2023-11-22T15:08:06;100918.72;;;19.51;28.92
60725;BME280;59881;36.722;-4.462;2023-11-22T15:10:33;100784.75;;;18.66;28.88
60725;BME280;59881;36.722;-4.462;2023-11-22T15:12:58;100926.88;;;19.49;29.19